Flight Track Log - Related Links

Times and Time Zones

All times are in EST time to prevent confusion due to time zone crossing. See the PDT4373 flight status page for this flight to view local times or setup timezone preferences in your user account.

Time Position Orientation Groundspeed Altitude Reporting Facility
EST Latitude Longitude Course Direction KTS km/h feet Rate Location/Type
Mon 11h52:00 42.0140 -75.9160 180° South  Level Estimated
Mon 11h53:00 41.9640 -75.9193 183° South  Level FlightAware Approximate
Mon 11h54:00 41.9141 -75.9226 183° South  Level FlightAware Approximate
Mon 11h55:00 41.8656 -75.9059 154° Southeast  Level Estimated
Mon 11h56:00 41.8172 -75.8892 160° South  Level Estimated
Mon 11h57:00 41.7673 -75.8831 175° South  Level FlightAware Approximate
Mon 11h58:00 41.7123 -75.8639 159° South  Level Estimated
Mon 11h59:00 41.6569 -75.8472 167° South  Level FlightAware Approximate
Mon 12h00:00 41.6019 -75.8280 153° Southeast  Level Estimated
Mon 12h01:00 41.5469 -75.8088 161° South  Level Estimated
Mon 12h02:00 41.4930 -75.7846 161° South  Level FlightAware Approximate
Mon 12h03:00 41.4391 -75.7604 161° South  Level FlightAware Approximate
Mon 12h04:00 41.3852 -75.7363 161° South  Level FlightAware Approximate
Mon 12h05:00 41.3301 -75.7178 162° South  Level Estimated
Mon 12h06:00 41.2764 -75.6931 161° South  Level FlightAware Approximate
Mon 12h07:00 41.2226 -75.6684 161° South  Level FlightAware Approximate
Mon 12h08:00 41.1689 -75.6438 161° South  Level FlightAware Approximate
Mon 12h09:00 41.1152 -75.6192 161° South  Level FlightAware Approximate
Mon 12h10:00 41.0598 -75.6021 163° South  Level Estimated
Mon 12h11:00 41.0059 -75.5781 161° South  Level FlightAware Approximate
Mon 12h12:00 40.9520 -75.5541 161° South  Level FlightAware Approximate
Mon 12h13:00 40.8981 -75.5302 161° South  Level FlightAware Approximate
Mon 12h14:00 40.8442 -75.5063 161° South  Level FlightAware Approximate
Mon 12h15:00 40.7886 -75.4909 190° South  Level Estimated
Mon 12h16:00 40.7318 -75.4927 181° South  Level FlightAware Approximate
Mon 12h17:00 40.6749 -75.4945 181° South  Level FlightAware Approximate
Mon 12h18:00 40.6181 -75.4963 181° South  Level FlightAware Approximate
Mon 12h18:38 40.6667 -75.4667 143° Southeast 179 332 6.100  Level Philadelphia TRACON
Mon 12h19:00 40.5544 -75.4743 187° South  Level Estimated
Mon 12h19:38 40.6167 -75.4833 194° South 187 346 6.100  Level Philadelphia TRACON
Mon 12h20:00 40.4908 -75.4523 190° South  Level Estimated
Mon 12h20:38 40.5667 -75.5000 194° South 203 377 6.100  Level Philadelphia TRACON
Mon 12h21:00 40.4279 -75.4779 197° South  Level FlightAware Approximate
Mon 12h21:38 40.5167 -75.4833 166° South 231 428 6.100  Level Philadelphia TRACON
Mon 12h22:00 40.3650 -75.5034 197° South  Level FlightAware Approximate
Mon 12h22:44 40.4500 -75.4500 159° South 233 431 6.000  Level Philadelphia TRACON
Mon 12h23:00 40.3041 -75.4707 143° Southeast  Level Estimated
Mon 12h23:38 40.3833 -75.4000 150° Southeast 236 438 6.000  Level Philadelphia TRACON
Mon 12h24:32 40.3333 -75.3667 153° Southeast 234 433 6.000  Level Philadelphia TRACON
Mon 12h25:32 40.2833 -75.3333 153° Southeast 231 428 6.000 50 Level Philadelphia TRACON
Mon 12h26:32 40.2333 -75.2833 143° Southeast 230 426 6.100 50 Climbing Philadelphia TRACON
Mon 12h27:32 40.1833 -75.2333 143° Southeast 220 407 6.100 -50 Level Philadelphia TRACON
Mon 12h28:32 40.1333 -75.1833 143° Southeast 233 431 6.000 -50 Descending Philadelphia TRACON
Mon 12h29:32 40.1000 -75.1167 123° Southeast 232 430 6.000  Level Philadelphia TRACON
Mon 12h30:32 40.0500 -75.0500 134° Southeast 230 426 6.000 -53 Level Philadelphia TRACON
Mon 12h31:26 40.0167 -75.0000 131° Southeast 172 319 5.900 -579 Descending Philadelphia TRACON
Mon 12h32:26 39.9833 -74.9833 159° South 175 323 4.900 -1.050 Descending Philadelphia TRACON
Mon 12h33:26 39.9333 -74.9833 180° South 181 335 3.800 -850 Descending Philadelphia TRACON
Mon 12h34:26 39.9167 -75.0333 247° West 150 278 3.200 -750 Descending Philadelphia TRACON
Mon 12h35:26 39.9000 -75.0833 247° West 157 291 2.300 -850 Descending Philadelphia TRACON
Mon 12h36:26 39.9000 -75.1333 270° West 125 232 1.500 -684 Descending Philadelphia TRACON
Mon 12h37:20 39.8833 -75.1667 237° Southwest 101 187 1.000 -600 Descending Philadelphia TRACON
Mon 12h38:26 39.8833 -75.2000 270° West 106 196 300 -636 Descending Philadelphia TRACON

Login

Don't have an account? Register now (free) for customized features, flight alerts, and more!